Time;durP1;ratioP1;P1;durP2;ratioP2;P2;SDS_P1;SDS_P2;PMS_P1;PMS_P2;Temp;Humidity;BMP_temperature;BMP_pressure;BME280_temperature;BME280_humidity;BME280_pressure;Samples;Min_cycle;Max_cycle;Signal;HPM_P1;HPM_P2
2022/06/01 00:01:27;;;;;;;1.02;0.77;;;12.10;99.90;;;;;;4182008;28;20651;-90
2022/06/01 00:03:37;;;;;;;3.92;1.13;;;12.10;99.90;;;;;;4198501;28;20171;-90
2022/06/01 00:05:37;;;;;;;2.90;0.90;;;12.00;99.90;;;;;;4182346;28;20179;-90
2022/06/01 00:07:38;;;;;;;5.35;1.20;;;12.00;99.90;;;;;;4181829;28;20198;-90
2022/06/01 00:09:39;;;;;;;2.50;0.90;;;12.00;99.90;;;;;;4181950;28;20656;-91
2022/06/01 00:11:40;;;;;;;2.45;0.90;;;12.00;99.90;;;;;;4181820;28;20175;-90
2022/06/01 00:13:41;;;;;;;2.87;0.93;;;12.00;99.90;;;;;;4198118;28;20202;-90
2022/06/01 00:15:42;;;;;;;2.87;1.13;;;11.90;99.90;;;;;;4181183;28;20163;-90
2022/06/01 00:17:42;;;;;;;1.23;0.70;;;11.90;99.90;;;;;;4198026;28;20327;-91
2022/06/01 00:19:43;;;;;;;3.30;1.10;;;11.80;99.90;;;;;;4198129;28;20186;-90
2022/06/01 00:24:03;;;;;;;1.35;0.93;;;11.80;99.90;;;;;;4198190;28;20174;-90
2022/06/01 00:26:04;;;;;;;5.47;1.20;;;11.60;99.90;;;;;;4181600;28;20171;-90
2022/06/01 00:28:05;;;;;;;2.80;0.90;;;11.70;99.90;;;;;;4197919;28;20187;-90
2022/06/01 00:30:09;;;;;;;3.30;1.00;;;11.70;99.90;;;;;;4181473;28;20248;-90
2022/06/01 00:32:11;;;;;;;3.93;1.00;;;11.70;99.90;;;;;;4197986;28;20584;-90
2022/06/01 00:34:12;;;;;;;3.63;1.00;;;11.70;99.90;;;;;;4181499;28;20789;-90
2022/06/01 00:36:12;;;;;;;5.17;1.20;;;11.70;99.90;;;;;;4181408;28;20176;-90
2022/06/01 00:38:14;;;;;;;1.87;1.00;;;11.80;99.90;;;;;;4181185;28;20266;-90
2022/06/01 00:40:17;;;;;;;2.93;0.87;;;11.80;99.90;;;;;;4181465;28;20163;-92
2022/06/01 00:42:22;;;;;;;3.30;1.00;;;11.80;99.90;;;;;;4198039;28;20171;-90
2022/06/01 00:44:22;;;;;;;2.67;1.27;;;11.70;99.90;;;;;;4181470;28;20164;-90
2022/06/01 00:46:23;;;;;;;4.43;1.00;;;11.60;99.90;;;;;;4181422;28;20180;-89
2022/06/01 00:48:28;;;;;;;3.23;1.40;;;11.60;99.90;;;;;;4181636;28;20198;-90
2022/06/01 00:50:34;;;;;;;2.47;1.10;;;11.50;99.90;;;;;;4181309;28;20266;-90
2022/06/01 00:52:38;;;;;;;3.92;1.27;;;11.40;99.90;;;;;;4197769;28;20182;-90
2022/06/01 00:54:40;;;;;;;3.07;1.50;;;11.40;99.90;;;;;;4181454;28;20628;-90
2022/06/01 00:56:48;;;;;;;3.53;1.10;;;11.40;99.90;;;;;;4181163;28;20179;-92
2022/06/01 00:58:55;;;;;;;3.63;1.60;;;11.40;99.90;;;;;;4181125;28;20178;-89
2022/06/01 01:00:57;;;;;;;4.20;1.20;;;11.40;99.90;;;;;;4181208;28;20179;-90
2022/06/01 01:03:01;;;;;;;4.90;1.37;;;11.40;99.90;;;;;;4181139;28;20178;-91
2022/06/01 01:05:04;;;;;;;2.77;1.30;;;11.40;99.90;;;;;;4181120;28;20167;-91
2022/06/01 01:07:09;;;;;;;3.40;1.30;;;11.40;99.90;;;;;;4180753;28;20188;-90
2022/06/01 01:09:11;;;;;;;4.83;1.63;;;11.40;99.90;;;;;;4180688;28;20182;-90
2022/06/01 01:11:12;;;;;;;3.00;1.40;;;11.40;99.90;;;;;;4181169;28;20175;-91
2022/06/01 01:13:14;;;;;;;5.37;1.40;;;11.30;99.90;;;;;;4181041;28;20172;-90
2022/06/01 01:15:16;;;;;;;6.50;1.57;;;11.20;99.90;;;;;;4180989;28;20171;-90
2022/06/01 01:17:17;;;;;;;7.80;1.57;;;11.30;99.90;;;;;;4197313;28;20206;-90
2022/06/01 01:19:33;;;;;;;6.37;1.57;;;11.20;99.90;;;;;;4197316;28;20254;-90
2022/06/01 01:21:50;;;;;;;2.53;1.40;;;11.10;99.90;;;;;;4197571;28;20162;-90
2022/06/01 01:24:07;;;;;;;6.40;1.77;;;11.10;99.90;;;;;;4197632;28;20570;-90
2022/06/01 01:26:08;;;;;;;7.50;1.60;;;11.10;99.90;;;;;;4197140;28;20178;-90
2022/06/01 01:28:10;;;;;;;7.63;1.40;;;11.10;99.90;;;;;;4180601;28;20191;-90
2022/06/01 01:30:49;;;;;;;4.47;1.70;;;11.10;99.90;;;;;;4197577;28;20191;-90
2022/06/01 01:32:50;;;;;;;4.37;1.80;;;11.10;99.90;;;;;;4131463;28;20181;-90
2022/06/01 01:34:50;;;;;;;5.03;1.60;;;11.20;99.90;;;;;;4159722;28;20194;-89
2022/06/01 01:36:57;;;;;;;7.63;1.67;;;11.10;99.90;;;;;;4180663;28;20245;-90
2022/06/01 01:39:09;;;;;;;5.63;1.60;;;11.00;99.90;;;;;;4197353;28;20185;-90
2022/06/01 01:41:14;;;;;;;6.67;1.50;;;11.00;99.90;;;;;;4214483;28;20254;-91
2022/06/01 01:43:15;;;;;;;3.73;1.40;;;11.00;99.90;;;;;;4180821;28;20225;-90
2022/06/01 01:45:28;;;;;;;10.13;1.93;;;10.90;99.90;;;;;;4181116;28;20175;-89
2022/06/01 01:47:29;;;;;;;7.93;1.50;;;10.90;99.90;;;;;;4180879;28;20192;-90
2022/06/01 01:49:33;;;;;;;4.00;1.60;;;10.90;99.90;;;;;;4180697;28;20182;-89
2022/06/01 01:51:34;;;;;;;3.40;1.70;;;10.90;99.90;;;;;;4197333;28;20181;-90
2022/06/01 01:53:35;;;;;;;3.77;1.73;;;10.80;99.90;;;;;;4180636;28;20184;-90
2022/06/01 01:56:14;;;;;;;3.53;1.60;;;10.80;99.90;;;;;;4197258;28;20177;-90
2022/06/01 01:58:52;;;;;;;4.30;1.73;;;10.90;99.90;;;;;;4163559;28;20832;-90
2022/06/01 02:01:00;;;;;;;7.57;1.70;;;10.80;99.90;;;;;;4180433;28;20659;-89
2022/06/01 02:03:35;;;;;;;6.00;1.67;;;10.80;99.90;;;;;;4197174;28;20174;-89
2022/06/01 02:08:12;;;;;;;2.83;1.70;;;10.70;99.90;;;;;;4196744;28;20209;-89
2022/06/01 02:12:41;;;;;;;5.13;1.87;;;10.80;99.90;;;;;;4196813;28;20178;-89
2022/06/01 02:14:53;;;;;;;4.53;1.53;;;10.80;99.90;;;;;;4180387;28;20182;-89
2022/06/01 02:17:01;;;;;;;7.43;1.83;;;10.70;99.90;;;;;;4180541;28;20206;-89
2022/06/01 02:19:06;;;;;;;4.60;1.73;;;10.80;99.90;;;;;;4180619;28;20678;-90
2022/06/01 02:21:22;;;;;;;5.60;1.70;;;10.80;99.90;;;;;;4180839;28;20186;-89
2022/06/01 02:23:23;;;;;;;4.87;1.80;;;10.70;99.90;;;;;;4180507;28;20179;-90
2022/06/01 02:25:24;;;;;;;6.07;2.03;;;10.70;99.90;;;;;;4196818;28;20171;-90
2022/06/01 02:27:25;;;;;;;7.87;2.03;;;10.70;99.90;;;;;;4180158;28;20582;-90
2022/06/01 02:29:40;;;;;;;5.60;1.63;;;10.70;99.90;;;;;;4180205;28;20176;-89
2022/06/01 02:31:42;;;;;;;3.67;1.40;;;10.60;99.90;;;;;;4180514;28;20199;-90
2022/06/01 02:33:46;;;;;;;4.43;1.73;;;10.50;99.90;;;;;;4197290;28;20182;-89
2022/06/01 02:35:51;;;;;;;5.30;1.67;;;10.50;99.90;;;;;;4180409;28;20171;-90
2022/06/01 02:37:56;;;;;;;4.27;1.67;;;10.40;99.90;;;;;;4181447;28;20227;-89
2022/06/01 02:39:59;;;;;;;6.60;1.90;;;10.40;99.90;;;;;;4183816;28;20679;-89
2022/06/01 02:42:25;;;;;;;4.67;1.63;;;10.40;99.90;;;;;;4183611;28;20536;-89
2022/06/01 02:44:26;;;;;;;2.30;1.60;;;10.40;99.90;;;;;;4196129;28;20182;-90
2022/06/01 02:46:28;;;;;;;5.57;1.97;;;10.40;99.90;;;;;;4199862;28;20179;-89
2022/06/01 02:48:29;;;;;;;7.00;2.03;;;10.40;99.90;;;;;;4199725;28;20199;-89
2022/06/01 02:50:32;;;;;;;4.17;2.00;;;10.40;99.90;;;;;;4199554;28;20235;-91
2022/06/01 02:52:33;;;;;;;5.73;2.20;;;10.40;99.90;;;;;;4199756;28;20174;-90
2022/06/01 02:54:34;;;;;;;4.30;1.83;;;10.40;99.90;;;;;;4199568;28;20240;-90
2022/06/01 02:56:35;;;;;;;3.80;1.77;;;10.40;99.90;;;;;;4199905;28;20174;-89
2022/06/01 02:58:37;;;;;;;3.27;1.87;;;10.40;99.90;;;;;;4182831;28;20278;-90
2022/06/01 03:00:40;;;;;;;4.93;1.83;;;10.40;99.90;;;;;;4199620;28;20253;-90
2022/06/01 03:02:42;;;;;;;5.63;2.00;;;10.40;99.90;;;;;;4182957;28;20258;-89
2022/06/01 03:04:44;;;;;;;9.10;2.33;;;10.40;99.90;;;;;;4182912;28;20191;-90
2022/06/01 03:06:44;;;;;;;3.73;1.97;;;10.50;99.90;;;;;;4199577;28;20280;-89
2022/06/01 03:08:45;;;;;;;6.60;2.20;;;10.40;99.90;;;;;;4199473;28;20179;-89
2022/06/01 03:10:48;;;;;;;10.23;2.10;;;10.40;99.90;;;;;;4182837;28;20175;-89
2022/06/01 03:12:49;;;;;;;3.03;1.77;;;10.40;99.90;;;;;;4182985;28;20200;-89
2022/06/01 03:14:50;;;;;;;4.97;2.17;;;10.40;99.90;;;;;;4182891;28;20178;-89
2022/06/01 03:16:51;;;;;;;5.77;2.10;;;10.40;99.90;;;;;;4182715;28;20179;-89
2022/06/01 03:18:52;;;;;;;6.30;1.90;;;10.40;99.90;;;;;;4182845;28;20602;-89
2022/06/01 03:20:52;;;;;;;6.40;2.10;;;10.40;99.90;;;;;;4199240;28;20175;-90
2022/06/01 03:22:54;;;;;;;4.87;2.20;;;10.30;99.90;;;;;;4182768;28;20586;-89
2022/06/01 03:24:54;;;;;;;4.70;2.07;;;10.30;99.90;;;;;;4182797;28;20172;-89
2022/06/01 03:26:56;;;;;;;5.37;2.20;;;10.20;99.90;;;;;;4182542;28;20167;-89
2022/06/01 03:28:57;;;;;;;4.63;2.00;;;10.30;99.90;;;;;;4182583;28;20180;-89
2022/06/01 03:31:00;;;;;;;7.07;2.30;;;10.20;99.90;;;;;;4182230;28;20655;-89
2022/06/01 03:33:01;;;;;;;6.13;2.50;;;10.30;99.90;;;;;;4182603;28;20174;-90
2022/06/01 03:35:04;;;;;;;8.23;2.37;;;10.30;99.90;;;;;;4182686;28;20207;-90
2022/06/01 03:37:05;;;;;;;6.93;2.20;;;10.30;99.90;;;;;;4182351;28;20209;-89
2022/06/01 03:39:06;;;;;;;10.17;2.67;;;10.40;99.90;;;;;;4215974;28;20558;-90
2022/06/01 03:41:06;;;;;;;5.47;2.00;;;10.40;99.90;;;;;;4199161;28;20167;-90
2022/06/01 03:43:09;;;;;;;5.83;2.57;;;10.20;99.90;;;;;;4182576;28;20170;-89
2022/06/01 03:47:31;;;;;;;6.23;2.63;;;10.10;99.90;;;;;;4215555;28;20259;-89
2022/06/01 03:49:35;;;;;;;8.13;2.40;;;10.10;99.90;;;;;;4181176;28;20168;-90
2022/06/01 03:51:36;;;;;;;8.10;2.60;;;10.00;99.90;;;;;;4182249;28;20172;-89
2022/06/01 03:53:37;;;;;;;4.17;2.30;;;10.00;99.90;;;;;;4182342;28;20207;-89
2022/06/01 03:55:38;;;;;;;6.03;2.40;;;10.00;99.90;;;;;;4182274;28;20714;-89
2022/06/01 03:57:38;;;;;;;4.53;2.17;;;10.00;99.90;;;;;;4182020;28;20250;-89
2022/06/01 03:59:39;;;;;;;4.77;2.10;;;10.00;99.90;;;;;;4198642;28;20653;-89
2022/06/01 04:01:40;;;;;;;6.97;2.37;;;10.10;99.90;;;;;;4182021;28;20179;-90
2022/06/01 04:03:41;;;;;;;6.60;2.93;;;10.20;99.90;;;;;;4182048;28;20210;-89
2022/06/01 04:05:42;;;;;;;8.00;2.73;;;10.20;99.90;;;;;;4182063;28;20283;-89
2022/06/01 04:07:43;;;;;;;7.17;3.00;;;10.20;99.90;;;;;;4182027;28;20187;-89
2022/06/01 04:09:45;;;;;;;11.63;3.00;;;10.30;99.90;;;;;;4182092;28;20186;-90
2022/06/01 04:11:46;;;;;;;8.53;3.93;;;10.30;99.90;;;;;;4182009;28;20237;-89
2022/06/01 04:13:46;;;;;;;8.10;4.20;;;10.20;99.90;;;;;;4181852;28;20660;-90
2022/06/01 04:15:47;;;;;;;13.77;5.50;;;10.30;99.90;;;;;;4181873;28;20263;-89
2022/06/01 04:17:48;;;;;;;13.97;7.17;;;10.40;99.90;;;;;;4198417;28;20203;-90
2022/06/01 04:19:48;;;;;;;11.37;6.63;;;10.40;99.90;;;;;;4198240;28;20186;-90
2022/06/01 04:21:51;;;;;;;14.27;6.67;;;10.40;99.90;;;;;;4198248;28;20232;-90
2022/06/01 04:23:56;;;;;;;16.23;6.27;;;10.40;99.90;;;;;;4181666;28;20266;-89
2022/06/01 04:25:57;;;;;;;12.17;5.63;;;10.30;99.90;;;;;;4198314;28;20178;-89
2022/06/01 04:27:58;;;;;;;9.87;3.63;;;10.40;99.90;;;;;;4181336;28;20249;-90
2022/06/01 04:29:59;;;;;;;12.50;3.70;;;10.40;99.90;;;;;;4181349;28;20203;-90
2022/06/01 04:32:07;;;;;;;5.73;2.90;;;10.40;99.90;;;;;;4198379;28;20224;-90
2022/06/01 04:34:08;;;;;;;7.97;2.77;;;10.40;99.90;;;;;;4198358;28;20335;-89
2022/06/01 04:36:10;;;;;;;8.30;2.97;;;10.40;99.90;;;;;;4198222;28;20268;-89
2022/06/01 04:38:13;;;;;;;5.13;2.57;;;10.40;99.90;;;;;;4198255;28;20245;-90
2022/06/01 04:40:15;;;;;;;8.60;2.60;;;10.40;99.90;;;;;;4181673;28;20172;-89
2022/06/01 04:42:16;;;;;;;4.27;2.70;;;10.50;99.90;;;;;;4181592;28;20183;-89
2022/06/01 04:44:17;;;;;;;3.97;2.30;;;10.50;99.90;;;;;;4181591;28;20167;-89
2022/06/01 04:46:18;;;;;;;7.17;2.80;;;10.50;99.90;;;;;;4198010;28;20201;-89
2022/06/01 04:48:22;;;;;;;5.83;2.50;;;10.50;99.90;;;;;;4197438;28;20207;-91
2022/06/01 04:50:23;;;;;;;6.63;2.37;;;10.60;99.90;;;;;;4181644;28;20185;-91
2022/06/01 04:52:23;;;;;;;6.20;2.67;;;10.60;99.90;;;;;;4197915;28;20198;-91
2022/06/01 04:54:24;;;;;;;6.60;2.53;;;10.60;99.90;;;;;;4181185;28;20176;-91
2022/06/01 04:56:25;;;;;;;4.10;2.50;;;10.70;99.90;;;;;;4181475;28;20179;-90
2022/06/01 04:58:26;;;;;;;4.70;2.67;;;10.70;99.90;;;;;;4181024;28;20206;-91
2022/06/01 05:00:26;;;;;;;8.00;2.40;;;10.70;99.90;;;;;;4181121;28;20186;-91
2022/06/01 05:02:27;;;;;;;7.47;3.07;;;10.80;99.90;;;;;;4181140;28;20179;-91
2022/06/01 05:04:29;;;;;;;4.97;2.30;;;10.90;99.90;;;;;;4181050;28;20171;-91
2022/06/01 05:06:29;;;;;;;9.23;2.80;;;11.00;99.90;;;;;;4180989;28;20176;-90
2022/06/01 05:08:30;;;;;;;4.03;2.60;;;11.10;99.90;;;;;;4181170;28;20196;-90
2022/06/01 05:10:31;;;;;;;7.53;2.67;;;11.30;99.90;;;;;;4181188;28;20163;-92
2022/06/01 05:12:32;;;;;;;9.00;2.73;;;11.40;99.90;;;;;;4181196;28;20176;-92
2022/06/01 05:14:33;;;;;;;6.57;2.87;;;11.50;99.90;;;;;;4181207;28;20182;-92
2022/06/01 05:16:33;;;;;;;4.88;2.55;;;11.60;99.90;;;;;;4181045;28;20233;-89
2022/06/01 05:18:35;;;;;;;9.93;2.97;;;11.70;99.90;;;;;;4180737;28;20231;-90
2022/06/01 05:20:36;;;;;;;6.67;2.60;;;11.60;99.90;;;;;;4180852;28;20220;-90
2022/06/01 05:22:37;;;;;;;12.10;2.90;;;11.80;99.90;;;;;;4197335;28;20170;-89
2022/06/01 05:24:38;;;;;;;7.15;2.83;;;11.90;99.90;;;;;;4180800;28;20266;-92
2022/06/01 05:26:38;;;;;;;5.63;2.63;;;11.80;99.90;;;;;;4180989;28;20180;-90
2022/06/01 05:28:39;;;;;;;7.18;2.55;;;11.90;99.90;;;;;;4181115;28;20179;-93
2022/06/01 05:30:40;;;;;;;5.75;2.70;;;12.00;99.90;;;;;;4197384;28;20626;-90
2022/06/01 05:32:40;;;;;;;11.05;3.20;;;12.00;99.90;;;;;;4180779;28;20194;-90
2022/06/01 05:34:41;;;;;;;7.68;2.80;;;12.20;99.90;;;;;;4180849;28;20176;-89
2022/06/01 05:36:41;;;;;;;7.22;2.70;;;12.20;99.90;;;;;;4180718;28;20175;-90
2022/06/01 05:38:42;;;;;;;6.80;2.53;;;12.40;99.90;;;;;;4181166;28;20301;-91
2022/06/01 05:40:43;;;;;;;10.20;2.90;;;12.60;99.90;;;;;;4181099;28;20171;-90
2022/06/01 05:42:43;;;;;;;9.10;2.83;;;12.80;99.90;;;;;;4181054;28;20171;-90
2022/06/01 05:44:45;;;;;;;9.23;2.80;;;12.90;99.90;;;;;;4180918;28;20172;-91
2022/06/01 05:46:45;;;;;;;6.72;2.58;;;12.90;99.90;;;;;;4180917;28;20186;-90
2022/06/01 05:48:46;;;;;;;7.40;2.80;;;12.90;99.90;;;;;;4197252;28;20167;-90
2022/06/01 05:50:47;;;;;;;11.35;3.25;;;12.90;99.90;;;;;;4180845;28;20183;-91
2022/06/01 05:52:47;;;;;;;7.72;2.90;;;13.00;99.90;;;;;;4180937;28;20172;-91
2022/06/01 05:54:48;;;;;;;6.22;2.70;;;13.10;99.90;;;;;;4197515;28;20623;-91
2022/06/01 05:56:49;;;;;;;9.20;3.00;;;13.20;99.90;;;;;;4180532;28;20656;-90
2022/06/01 05:58:50;;;;;;;8.70;3.08;;;13.20;99.90;;;;;;4197241;28;20235;-90
2022/06/01 06:00:52;;;;;;;7.95;3.13;;;13.10;99.90;;;;;;4180725;28;20175;-91
2022/06/01 06:02:53;;;;;;;6.55;2.72;;;12.90;99.90;;;;;;4197494;28;20190;-90
2022/06/01 06:04:53;;;;;;;8.30;3.20;;;13.00;99.90;;;;;;4197547;28;20202;-90
2022/06/01 06:06:55;;;;;;;6.28;3.08;;;13.00;99.90;;;;;;4180643;28;20183;-90
2022/06/01 06:09:00;;;;;;;8.10;2.88;;;12.90;99.90;;;;;;4197348;28;20225;-90
2022/06/01 06:11:01;;;;;;;8.48;3.10;;;13.00;99.90;;;;;;4197420;28;20266;-89
2022/06/01 06:13:02;;;;;;;11.10;3.40;;;13.10;99.90;;;;;;4182132;28;20172;-90
2022/06/01 06:15:03;;;;;;;7.90;3.22;;;13.30;99.90;;;;;;4200527;28;20171;-90
2022/06/01 06:17:04;;;;;;;6.82;3.28;;;13.40;99.90;;;;;;4183752;28;20203;-90
2022/06/01 06:19:05;;;;;;;12.45;3.78;;;13.50;99.90;;;;;;4183540;28;20282;-91
2022/06/01 06:21:06;;;;;;;10.95;3.53;;;13.30;99.90;;;;;;4183885;28;20168;-89
2022/06/01 06:23:07;;;;;;;9.65;3.95;;;13.50;99.90;;;;;;4200235;28;20187;-89
2022/06/01 06:25:08;;;;;;;10.38;3.50;;;13.30;99.90;;;;;;4184046;28;20183;-90
2022/06/01 06:27:09;;;;;;;9.73;3.35;;;13.10;99.90;;;;;;4183630;28;20195;-90
2022/06/01 06:29:11;;;;;;;11.50;3.38;;;12.90;99.90;;;;;;4183731;28;20167;-92
2022/06/01 06:31:12;;;;;;;8.30;3.13;;;12.80;99.90;;;;;;4183591;28;20261;-90
2022/06/01 06:33:12;;;;;;;9.27;3.55;;;12.90;99.90;;;;;;4183569;28;20186;-90
2022/06/01 06:35:13;;;;;;;11.68;3.17;;;13.00;99.90;;;;;;4183475;28;20268;-89
2022/06/01 06:37:14;;;;;;;10.63;4.00;;;13.30;99.90;;;;;;4199979;28;20284;-90
2022/06/01 06:39:15;;;;;;;12.13;4.03;;;13.40;99.90;;;;;;4183632;28;20245;-89
2022/06/01 06:41:15;;;;;;;8.82;3.45;;;13.70;99.90;;;;;;4183683;28;20172;-89
2022/06/01 06:43:16;;;;;;;11.80;3.70;;;13.70;99.90;;;;;;4183561;28;20175;-90
2022/06/01 06:45:17;;;;;;;11.30;3.40;;;13.70;99.90;;;;;;4200432;28;20213;-91
2022/06/01 06:47:18;;;;;;;9.10;3.85;;;13.70;99.90;;;;;;4200054;28;20182;-89
2022/06/01 06:49:19;;;;;;;10.45;4.40;;;13.60;99.90;;;;;;4183461;28;20175;-89
2022/06/01 06:51:20;;;;;;;6.38;3.83;;;13.60;99.90;;;;;;4200135;28;20182;-89
2022/06/01 06:53:22;;;;;;;11.93;3.67;;;13.80;99.90;;;;;;4199769;28;20186;-93
2022/06/01 06:55:23;;;;;;;10.90;3.75;;;13.80;99.90;;;;;;4183397;28;20195;-89
2022/06/01 06:57:24;;;;;;;11.80;3.75;;;14.10;99.90;;;;;;4182725;28;20211;-90
2022/06/01 06:59:24;;;;;;;7.55;3.60;;;14.10;99.90;;;;;;4183300;28;20175;-89
2022/06/01 07:01:25;;;;;;;7.40;3.53;;;14.10;99.90;;;;;;4183163;28;20171;-89
2022/06/01 07:03:26;;;;;;;9.38;3.80;;;14.30;99.90;;;;;;4183334;28;20266;-89
2022/06/01 07:07:45;;;;;;;13.63;4.03;;;14.70;99.90;;;;;;4199480;28;20203;-89
2022/06/01 07:09:46;;;;;;;7.90;3.83;;;14.80;99.90;;;;;;4182947;28;20609;-88
2022/06/01 07:11:47;;;;;;;9.75;3.95;;;15.10;99.90;;;;;;4199591;28;20171;-90
2022/06/01 07:13:49;;;;;;;9.25;3.10;;;16.50;99.90;;;;;;4183079;28;20195;-89
2022/06/01 07:16:03;;;;;;;7.85;3.20;;;18.60;99.90;;;;;;4183222;28;20263;-90
2022/06/01 07:18:05;;;;;;;13.90;3.22;;;21.00;99.90;;;;;;4182849;28;20594;-90
2022/06/01 07:20:07;;;;;;;7.75;2.83;;;22.60;99.90;;;;;;4199576;28;20177;-90
2022/06/01 07:22:08;;;;;;;9.93;2.47;;;23.60;99.90;;;;;;4199625;28;20174;-91
2022/06/01 07:24:09;;;;;;;7.90;2.90;;;24.50;99.90;;;;;;4199335;28;20669;-90
2022/06/01 07:26:13;;;;;;;6.50;2.72;;;25.90;99.90;;;;;;4182968;28;20171;-90
2022/06/01 07:28:13;;;;;;;8.63;2.33;;;27.20;99.90;;;;;;4182880;28;20562;-90
2022/06/01 07:30:15;;;;;;;11.55;2.95;;;27.30;99.90;;;;;;4182814;28;20183;-91
2022/06/01 07:32:16;;;;;;;6.75;2.67;;;27.70;99.90;;;;;;4199518;28;20179;-91
2022/06/01 07:34:17;;;;;;;8.13;3.20;;;28.10;99.90;;;;;;4182548;28;20267;-89
2022/06/01 07:36:19;;;;;;;10.10;2.60;;;28.00;99.90;;;;;;4182763;28;20175;-91
2022/06/01 07:43:08;;;;;;;6.95;2.35;;;28.20;99.90;;;;;;4198716;28;20325;-92
2022/06/01 07:45:08;;;;;;;5.63;2.58;;;27.50;99.90;;;;;;4198965;28;20196;-89
2022/06/01 07:47:11;;;;;;;10.10;2.83;;;27.50;99.90;;;;;;4199245;28;20285;-91
2022/06/01 07:49:12;;;;;;;7.68;2.80;;;27.00;99.90;;;;;;4198754;28;20206;-90
2022/06/01 07:51:13;;;;;;;5.38;2.75;;;26.80;99.90;;;;;;4198834;28;20206;-91
2022/06/01 07:53:14;;;;;;;6.68;2.38;;;25.90;99.90;;;;;;4198767;28;20204;-91
2022/06/01 07:55:15;;;;;;;4.28;2.58;;;26.30;99.90;;;;;;4198854;28;20278;-90
2022/06/01 07:57:15;;;;;;;5.88;2.50;;;26.50;99.90;;;;;;4182125;28;20360;-92
2022/06/01 07:59:16;;;;;;;6.15;2.47;;;25.60;99.90;;;;;;4198888;28;20186;-90
2022/06/01 08:01:21;;;;;;;4.55;2.80;;;25.10;99.90;;;;;;4182390;28;20172;-90
2022/06/01 08:03:21;;;;;;;6.05;2.75;;;24.90;99.90;;;;;;4182634;28;20176;-88
2022/06/01 08:05:22;;;;;;;5.03;2.30;;;24.40;99.90;;;;;;4182105;28;20180;-89
2022/06/01 08:07:23;;;;;;;5.75;2.33;;;24.30;99.90;;;;;;4182543;28;20188;-89
2022/06/01 08:09:24;;;;;;;4.82;2.38;;;24.60;99.90;;;;;;4182422;28;20199;-89
2022/06/01 08:13:06;;;;;;;5.78;2.50;;;24.40;99.90;;;;;;4182208;28;20324;-89
2022/06/01 08:13:46;;;;;;;4.47;2.70;;;24.00;99.90;;;;;;4215027;28;20170;-88
2022/06/01 08:15:49;;;;;;;6.22;2.60;;;24.00;99.90;;;;;;4181971;28;20178;-90
2022/06/01 08:17:50;;;;;;;6.03;2.60;;;24.40;99.90;;;;;;4181854;28;20262;-91
2022/06/01 08:19:51;;;;;;;5.93;2.50;;;24.60;99.90;;;;;;4198483;28;20162;-90
2022/06/01 08:21:51;;;;;;;11.40;2.67;;;24.40;99.90;;;;;;4181853;28;20563;-91
2022/06/01 08:23:52;;;;;;;5.55;2.60;;;23.30;99.90;;;;;;4182041;28;20663;-90
2022/06/01 08:25:53;;;;;;;7.75;2.75;;;22.80;99.90;;;;;;4181857;28;20182;-90
2022/06/01 08:27:54;;;;;;;8.25;2.53;;;22.80;99.90;;;;;;4181803;28;20222;-89
2022/06/01 08:29:54;;;;;;;4.88;2.35;;;22.70;99.90;;;;;;4181855;28;20659;-90
2022/06/01 08:31:55;;;;;;;7.28;2.40;;;22.60;99.90;;;;;;4198333;28;20178;-88
2022/06/01 08:33:57;;;;;;;7.38;2.47;;;22.70;99.90;;;;;;4181730;28;20266;-89
2022/06/01 08:35:58;;;;;;;4.75;2.33;;;22.90;99.90;;;;;;4181188;28;20172;-89
2022/06/01 08:37:59;;;;;;;5.03;2.00;;;23.10;99.90;;;;;;4198143;28;20254;-90
2022/06/01 08:40:00;;;;;;;4.70;2.33;;;23.30;99.90;;;;;;4198218;28;20166;-89
2022/06/01 08:42:03;;;;;;;4.32;2.67;;;23.20;99.90;;;;;;4198080;28;20671;-90
2022/06/01 08:44:17;;;;;;;7.18;2.80;;;24.30;99.90;;;;;;4197951;28;20546;-89
2022/06/01 08:46:19;;;;;;;5.55;2.90;;;25.10;99.90;;;;;;4181746;28;20270;-92
2022/06/01 08:48:42;;;;;;;4.63;2.90;;;26.00;99.90;;;;;;4198091;28;20674;-89
2022/06/01 08:50:43;;;;;;;7.07;3.40;;;25.20;99.90;;;;;;4181588;28;20593;-90
2022/06/01 08:52:44;;;;;;;5.60;2.90;;;25.30;99.90;;;;;;4198056;28;20178;-90
2022/06/01 08:54:44;;;;;;;6.68;2.70;;;25.00;99.90;;;;;;4181457;28;20814;-90
2022/06/01 08:56:51;;;;;;;5.65;3.20;;;25.40;99.90;;;;;;4181498;28;20210;-90
2022/06/01 08:59:23;;;;;;;7.55;3.35;;;25.50;99.90;;;;;;4181211;28;20199;-90
2022/06/01 09:02:06;;;;;;;6.18;2.25;;;25.50;99.90;;;;;;4197909;28;20179;-88
2022/06/01 09:04:18;;;;;;;4.72;2.30;;;26.60;99.90;;;;;;4144613;28;20191;-92
2022/06/01 09:06:26;;;;;;;4.63;1.83;;;27.40;99.90;;;;;;4181366;28;20183;-90
2022/06/01 09:08:57;;;;;;;2.60;1.73;;;27.50;99.90;;;;;;4197526;28;20574;-90
2022/06/01 09:11:10;;;;;;;7.63;2.20;;;27.20;99.90;;;;;;4181294;28;20266;-89
2022/06/01 09:13:15;;;;;;;4.60;1.80;;;28.00;99.90;;;;;;4181140;28;20587;-90
2022/06/01 09:15:23;;;;;;;6.45;2.08;;;28.20;99.90;;;;;;4197846;28;20546;-90
2022/06/01 09:17:24;;;;;;;8.70;2.00;;;26.90;99.90;;;;;;4180927;28;20210;-89
2022/06/01 09:19:27;;;;;;;8.18;1.90;;;25.80;99.90;;;;;;4197654;28;20275;-88
2022/06/01 09:23:56;;;;;;;5.63;2.25;;;25.90;99.90;;;;;;4197711;28;20602;-89
2022/06/01 09:25:57;;;;;;;4.55;2.05;;;27.00;99.90;;;;;;4181384;28;20167;-89
2022/06/01 09:28:16;;;;;;;5.93;2.45;;;27.30;99.90;;;;;;4181216;28;20190;-91
2022/06/01 09:30:17;;;;;;;5.65;2.03;;;26.30;99.90;;;;;;4181198;28;20191;-89
2022/06/01 09:32:27;;;;;;;4.13;2.30;;;26.50;99.90;;;;;;4181002;28;20179;-90
2022/06/01 09:34:47;;;;;;;5.90;2.15;;;25.90;99.90;;;;;;4180984;28;20182;-89
2022/06/01 09:37:01;;;;;;;3.80;2.08;;;26.80;99.90;;;;;;4180908;28;20209;-90
2022/06/01 09:39:03;;;;;;;4.78;1.90;;;27.40;99.90;;;;;;4181054;28;20187;-90
2022/06/01 09:41:10;;;;;;;4.45;1.80;;;27.90;99.90;;;;;;4181066;28;20171;-92
2022/06/01 09:43:23;;;;;;;3.13;1.42;;;27.60;99.90;;;;;;4180786;28;20175;-90
2022/06/01 09:45:33;;;;;;;3.08;1.85;;;26.50;99.90;;;;;;4180933;28;20175;-90
2022/06/01 09:47:37;;;;;;;3.83;1.60;;;26.40;99.90;;;;;;4183033;28;20203;-90
2022/06/01 09:49:42;;;;;;;4.35;1.50;;;26.10;99.90;;;;;;4184287;28;20163;-89
2022/06/01 09:51:44;;;;;;;3.53;1.33;;;25.40;99.90;;;;;;4200989;28;20634;-91
2022/06/01 09:54:11;;;;;;;5.20;1.70;;;25.20;99.90;;;;;;4184184;28;20175;-88
2022/06/01 09:56:33;;;;;;;3.70;1.75;;;24.00;99.90;;;;;;4184191;28;20184;-89
2022/06/01 10:08:16;;;;;;;6.55;2.13;;;21.50;99.90;;;;;;4200619;28;20206;-89
2022/06/01 10:10:24;;;;;;;4.25;1.65;;;20.90;99.90;;;;;;4184146;28;20202;-87
2022/06/01 10:12:37;;;;;;;3.42;1.70;;;20.20;99.90;;;;;;4200590;28;20170;-88
2022/06/01 10:14:48;;;;;;;3.90;2.03;;;20.00;99.90;;;;;;4184016;28;20669;-89
2022/06/01 10:17:01;;;;;;;6.78;2.30;;;19.50;99.90;;;;;;4183816;28;20171;-90
2022/06/01 10:19:05;;;;;;;4.40;2.00;;;19.20;99.90;;;;;;4183627;28;20187;-87
2022/06/01 10:21:13;;;;;;;4.70;1.70;;;18.90;99.90;;;;;;4183892;28;20174;-88
2022/06/01 10:23:30;;;;;;;4.70;2.03;;;18.60;99.90;;;;;;4183600;28;20178;-88
2022/06/01 10:25:54;;;;;;;8.25;1.73;;;18.90;99.90;;;;;;4183777;28;20218;-89
2022/06/01 10:28:01;;;;;;;5.25;1.60;;;19.30;99.90;;;;;;4200146;28;20183;-87
2022/06/01 10:30:23;;;;;;;4.75;1.88;;;19.30;99.90;;;;;;4183763;28;20273;-88
2022/06/01 10:32:47;;;;;;;4.95;1.85;;;19.10;99.90;;;;;;4183586;28;20177;-86
2022/06/01 10:34:55;;;;;;;6.60;2.38;;;18.80;99.90;;;;;;4183629;28;20176;-88
2022/06/01 10:37:17;;;;;;;3.42;1.83;;;19.10;99.90;;;;;;4183554;28;20218;-87
2022/06/01 10:39:29;;;;;;;3.83;1.45;;;19.30;99.90;;;;;;4183394;28;20196;-87
2022/06/01 10:41:52;;;;;;;4.30;1.63;;;19.00;99.90;;;;;;4183555;28;20266;-87
2022/06/01 10:44:29;;;;;;;3.58;1.75;;;18.70;99.90;;;;;;4183279;28;20183;-88
2022/06/01 10:46:45;;;;;;;5.13;1.70;;;19.10;99.90;;;;;;4200048;28;20258;-89
2022/06/01 10:48:55;;;;;;;3.47;1.63;;;19.30;99.90;;;;;;4183450;28;20171;-88
2022/06/01 10:51:15;;;;;;;2.17;1.65;;;19.30;99.90;;;;;;4183481;28;20183;-88
2022/06/01 10:53:32;;;;;;;6.78;1.90;;;19.20;99.90;;;;;;4183453;28;20179;-90
2022/06/01 10:55:42;;;;;;;3.22;1.50;;;19.20;99.90;;;;;;4183588;28;20533;-89
2022/06/01 10:57:45;;;;;;;2.13;1.40;;;19.70;99.90;;;;;;4183122;28;20624;-90
2022/06/01 10:59:47;;;;;;;3.30;1.90;;;19.50;99.90;;;;;;4183053;28;20262;-87
2022/06/01 11:02:05;;;;;;;3.78;1.60;;;19.40;99.90;;;;;;4200071;28;20167;-88
2022/06/01 11:04:14;;;;;;;4.88;1.80;;;19.50;99.90;;;;;;4183013;28;20205;-87
2022/06/01 11:06:22;;;;;;;5.63;1.80;;;19.50;99.90;;;;;;4183064;28;20182;-89
2022/06/01 11:08:47;;;;;;;3.38;1.30;;;19.60;99.90;;;;;;4199629;28;20182;-87
2022/06/01 11:11:11;;;;;;;3.60;1.50;;;19.60;99.90;;;;;;4183100;28;20275;-88
2022/06/01 11:13:45;;;;;;;3.90;1.90;;;19.70;99.90;;;;;;4182904;28;20245;-86
2022/06/01 11:16:14;;;;;;;3.17;2.10;;;19.70;99.90;;;;;;4199461;28;20185;-85
2022/06/01 11:18:18;;;;;;;3.10;2.13;;;19.70;99.90;;;;;;4199710;28;20206;-90